Time;durP1;ratioP1;P1;durP2;ratioP2;P2;SDS_P1;SDS_P2;PMS_P1;PMS_P2;Temp;Humidity;BMP_temperature;BMP_pressure;BME280_temperature;BME280_humidity;BME280_pressure;Samples;Min_cycle;Max_cycle;Signal;HPM_P1;HPM_P2
2022/08/12 00:43:34;;;;;;;7.25;5.53;;;18.00;99.90;;;;;;5072389;28;20420;-65
2022/08/12 00:48:44;;;;;;;11.85;5.72;;;17.90;99.90;;;;;;5098874;28;20052;-65
2022/08/12 00:51:10;;;;;;;7.75;5.35;;;17.90;99.90;;;;;;5078461;28;20067;-65
2022/08/12 00:53:36;;;;;;;9.05;5.50;;;17.80;99.90;;;;;;5102970;28;20052;-65
2022/08/12 00:56:04;;;;;;;9.10;5.07;;;17.70;99.90;;;;;;5082764;28;20043;-65
2022/08/12 00:58:31;;;;;;;6.13;5.38;;;17.60;99.90;;;;;;5079352;28;20063;-65
2022/08/12 01:01:07;;;;;;;6.68;5.10;;;17.50;99.90;;;;;;5083802;28;20119;-65
2022/08/12 01:11:52;;;;;;;6.88;5.65;;;17.50;99.90;;;;;;5103041;28;20048;-65
2022/08/12 01:14:22;;;;;;;7.40;5.45;;;17.50;99.90;;;;;;5083846;28;20052;-65
2022/08/12 01:16:50;;;;;;;7.15;5.78;;;17.50;99.90;;;;;;5082228;28;20131;-65
2022/08/12 01:19:19;;;;;;;6.65;5.70;;;17.60;99.90;;;;;;5082371;28;20044;-65
2022/08/12 01:22:06;;;;;;;9.18;6.03;;;17.60;99.90;;;;;;5087656;28;20054;-65
2022/08/12 01:24:42;;;;;;;7.03;5.63;;;17.60;99.90;;;;;;5074305;28;20049;-65
2022/08/12 01:27:10;;;;;;;6.53;5.75;;;17.50;99.90;;;;;;5068937;28;20044;-65
2022/08/12 01:29:42;;;;;;;7.82;5.30;;;17.40;99.90;;;;;;5101015;28;20052;-65
2022/08/12 01:32:10;;;;;;;6.32;5.57;;;17.40;99.90;;;;;;5074021;28;20489;-65
2022/08/12 01:34:38;;;;;;;6.60;5.50;;;17.30;99.90;;;;;;5085297;28;20059;-65
2022/08/12 01:37:07;;;;;;;7.07;5.22;;;17.30;99.90;;;;;;5089815;28;20045;-65
2022/08/12 01:39:44;;;;;;;7.53;5.55;;;17.20;99.90;;;;;;5077120;28;20059;-65
2022/08/12 01:42:15;;;;;;;7.13;6.05;;;17.10;99.90;;;;;;5088463;28;20060;-65
2022/08/12 01:44:43;;;;;;;8.60;6.28;;;17.00;99.90;;;;;;5076248;28;20052;-65
2022/08/12 01:48:00;;;;;;;7.80;6.38;;;17.00;99.90;;;;;;5081715;28;20056;-65
2022/08/12 01:51:09;;;;;;;8.65;6.35;;;17.00;99.90;;;;;;5028666;28;20072;-65
2022/08/12 01:53:51;;;;;;;9.60;6.97;;;17.10;99.90;;;;;;5025659;28;20081;-65
2022/08/12 01:56:22;;;;;;;9.57;6.32;;;17.00;99.90;;;;;;5047152;28;20045;-65
2022/08/12 02:01:38;;;;;;;9.88;6.65;;;17.10;99.90;;;;;;5025193;28;20051;-65
2022/08/12 02:13:30;;;;;;;8.55;6.75;;;17.00;99.90;;;;;;5021563;28;20090;-65
2022/08/12 02:16:08;;;;;;;10.02;6.80;;;17.10;99.90;;;;;;5045655;28;20353;-65
2022/08/12 02:18:45;;;;;;;7.28;6.57;;;17.10;99.90;;;;;;5020475;28;20075;-65
2022/08/12 02:21:33;;;;;;;10.02;7.20;;;17.00;99.90;;;;;;5019468;28;20117;-65
2022/08/12 02:24:00;;;;;;;12.18;7.60;;;17.10;99.90;;;;;;5041862;28;20069;-65
2022/08/12 02:26:29;;;;;;;12.50;8.10;;;17.20;99.90;;;;;;5064501;28;20055;-65
2022/08/12 02:28:56;;;;;;;11.70;7.82;;;17.20;99.90;;;;;;5100522;28;20028;-66
2022/08/12 02:31:23;;;;;;;8.93;7.20;;;17.30;99.90;;;;;;5082160;28;20420;-65
2022/08/12 02:33:50;;;;;;;13.77;7.90;;;17.30;99.90;;;;;;5086050;28;20496;-65
2022/08/12 02:36:17;;;;;;;11.40;7.38;;;17.30;99.90;;;;;;5089024;28;20033;-65
2022/08/12 02:38:43;;;;;;;9.80;6.90;;;17.30;99.90;;;;;;5083427;28;20075;-65
2022/08/12 02:41:11;;;;;;;10.68;7.40;;;17.20;99.90;;;;;;5083712;28;20053;-65
2022/08/12 02:43:43;;;;;;;8.00;7.20;;;17.20;99.90;;;;;;5100356;28;20059;-65
2022/08/12 02:46:11;;;;;;;11.00;7.32;;;17.30;99.90;;;;;;5077537;28;20173;-65
2022/08/12 02:49:09;;;;;;;9.75;7.95;;;17.30;99.90;;;;;;5085864;28;20082;-65
2022/08/12 02:51:43;;;;;;;8.55;6.85;;;17.40;99.90;;;;;;5080669;28;20441;-65
2022/08/12 02:54:09;;;;;;;9.75;8.32;;;17.40;99.90;;;;;;5083446;28;20056;-65
2022/08/12 02:56:40;;;;;;;12.85;8.70;;;17.40;99.90;;;;;;5103885;28;20051;-65
2022/08/12 02:59:09;;;;;;;10.98;7.85;;;17.30;99.90;;;;;;5100721;28;20048;-65
2022/08/12 03:01:52;;;;;;;10.10;7.75;;;17.40;99.90;;;;;;5098590;28;20044;-65
2022/08/12 03:04:49;;;;;;;8.93;7.57;;;17.30;99.90;;;;;;5072070;28;20056;-65
2022/08/12 03:07:30;;;;;;;11.43;7.70;;;17.20;99.90;;;;;;5094888;28;20052;-65
2022/08/12 03:10:07;;;;;;;9.27;7.63;;;17.10;99.90;;;;;;5105495;28;20048;-65
2022/08/12 03:12:38;;;;;;;12.57;8.90;;;17.00;99.90;;;;;;5084202;28;20040;-65
2022/08/12 03:15:08;;;;;;;10.82;7.65;;;17.00;99.90;;;;;;5082631;28;20041;-65
2022/08/12 03:17:49;;;;;;;8.68;7.80;;;17.00;99.90;;;;;;5099019;28;20055;-65
2022/08/12 03:20:19;;;;;;;8.65;7.07;;;17.00;99.90;;;;;;5097348;28;20044;-65
2022/08/12 03:22:46;;;;;;;8.52;6.93;;;16.90;99.90;;;;;;5087405;28;20040;-65
2022/08/12 03:25:23;;;;;;;7.78;6.97;;;16.80;99.90;;;;;;5079365;28;20136;-65
2022/08/12 03:27:54;;;;;;;10.55;7.30;;;16.80;99.90;;;;;;5077642;28;20043;-65
2022/08/12 03:30:31;;;;;;;7.20;6.50;;;16.70;99.90;;;;;;5050382;28;20067;-65
2022/08/12 03:32:59;;;;;;;8.95;6.90;;;16.60;99.90;;;;;;5064414;28;20064;-65
2022/08/12 03:35:26;;;;;;;9.43;6.70;;;16.40;99.90;;;;;;5078511;28;20040;-65
2022/08/12 03:37:56;;;;;;;11.23;6.30;;;16.30;99.90;;;;;;5064538;28;20117;-65
2022/08/12 04:00:23;;;;;;;12.55;8.77;;;16.30;99.90;;;;;;5063877;28;20084;-65
2022/08/12 04:03:04;;;;;;;11.38;8.23;;;16.40;99.90;;;;;;5039227;28;20048;-65
2022/08/12 04:05:31;;;;;;;11.75;9.30;;;16.50;99.90;;;;;;5085262;28;20044;-65
2022/08/12 04:08:02;;;;;;;11.85;8.80;;;16.60;99.90;;;;;;5078164;28;20274;-65
2022/08/12 04:13:20;;;;;;;12.82;9.40;;;16.60;99.90;;;;;;5082098;28;20060;-65
2022/08/12 04:15:46;;;;;;;10.45;9.23;;;16.70;99.90;;;;;;5084408;28;20051;-65
2022/08/12 04:18:17;;;;;;;12.35;10.07;;;16.80;99.90;;;;;;5081272;28;20049;-65
2022/08/12 04:20:44;;;;;;;11.07;8.95;;;16.80;99.90;;;;;;5066997;28;20040;-65
2022/08/12 04:23:13;;;;;;;13.63;10.10;;;16.80;99.90;;;;;;5079245;28;20048;-65
2022/08/12 04:25:39;;;;;;;;;;;16.90;99.90;;;;;;5083148;28;20040;-65
2022/08/12 04:28:07;;;;;;;14.63;10.02;;;16.80;99.90;;;;;;5079638;28;19917;-65
2022/08/12 04:30:34;;;;;;;13.75;9.32;;;16.80;99.90;;;;;;5074871;28;20492;-65
2022/08/12 04:33:00;;;;;;;12.82;9.75;;;16.70;99.90;;;;;;5077048;28;20052;-65
2022/08/12 04:35:26;;;;;;;12.45;8.88;;;16.70;99.90;;;;;;5086485;28;20036;-65
2022/08/12 04:37:54;;;;;;;11.95;8.98;;;16.60;99.90;;;;;;5076419;28;20102;-65
2022/08/12 04:40:22;;;;;;;14.05;9.63;;;16.70;99.90;;;;;;5086187;28;20059;-65
2022/08/12 04:42:48;;;;;;;12.65;8.75;;;16.60;99.90;;;;;;5102366;28;20043;-65
2022/08/12 04:45:14;;;;;;;13.05;8.68;;;16.70;99.90;;;;;;5085016;28;20055;-65
2022/08/12 04:47:40;;;;;;;12.82;9.05;;;16.60;99.90;;;;;;5080849;28;20048;-65
2022/08/12 04:50:07;;;;;;;11.70;8.73;;;16.60;99.90;;;;;;5084398;28;20102;-65
2022/08/12 04:52:33;;;;;;;11.90;9.13;;;16.60;99.90;;;;;;5103480;28;20050;-65
2022/08/12 04:55:01;;;;;;;11.85;8.75;;;16.50;99.90;;;;;;5085316;28;20370;-65
2022/08/12 04:57:27;;;;;;;11.27;9.55;;;16.50;99.90;;;;;;5105196;28;20119;-65
2022/08/12 04:59:52;;;;;;;17.20;10.07;;;16.50;99.90;;;;;;5085647;28;20071;-65
2022/08/12 05:02:19;;;;;;;11.45;9.27;;;16.50;99.90;;;;;;5102864;28;20046;-65
2022/08/12 05:04:46;;;;;;;10.77;8.82;;;16.50;99.90;;;;;;5086874;28;20163;-65
2022/08/12 05:07:12;;;;;;;12.93;9.45;;;16.40;99.90;;;;;;5103806;28;20055;-65
2022/08/12 05:09:38;;;;;;;12.55;9.77;;;16.40;99.90;;;;;;5086167;28;20039;-65
2022/08/12 05:12:05;;;;;;;10.15;8.90;;;16.40;99.90;;;;;;5082452;28;20051;-65
2022/08/12 05:14:31;;;;;;;11.82;10.15;;;16.50;99.90;;;;;;5082471;28;20051;-65
2022/08/12 05:16:59;;;;;;;11.98;9.13;;;16.50;99.90;;;;;;5100711;28;20902;-65
2022/08/12 05:19:25;;;;;;;16.23;9.25;;;16.50;99.90;;;;;;5078111;28;20048;-65
2022/08/12 05:21:51;;;;;;;11.38;9.10;;;16.50;99.90;;;;;;5076851;28;20051;-65
2022/08/12 05:24:17;;;;;;;11.30;9.38;;;16.60;99.90;;;;;;5099395;28;20044;-65
2022/08/12 05:26:46;;;;;;;12.48;9.60;;;16.60;99.90;;;;;;5085280;28;20052;-65
2022/08/12 05:29:13;;;;;;;15.18;9.07;;;16.60;99.90;;;;;;5081403;28;20044;-65
2022/08/12 05:31:40;;;;;;;12.35;9.38;;;16.70;99.90;;;;;;5081216;28;20052;-65
2022/08/12 05:34:05;;;;;;;12.73;9.65;;;16.70;99.90;;;;;;5064325;28;20048;-65
2022/08/12 05:36:31;;;;;;;11.95;9.30;;;16.80;99.90;;;;;;5056253;28;20047;-65
2022/08/12 05:38:57;;;;;;;10.65;9.40;;;16.90;99.90;;;;;;5066597;28;20033;-65
2022/08/12 05:41:25;;;;;;;10.82;8.63;;;16.90;99.90;;;;;;5083045;28;20054;-65
2022/08/12 05:43:59;;;;;;;14.27;9.13;;;17.00;99.90;;;;;;5065553;28;20048;-65
2022/08/12 05:46:27;;;;;;;10.85;9.13;;;17.10;99.90;;;;;;5063866;28;20078;-65
2022/08/12 05:48:55;;;;;;;10.88;9.32;;;17.20;99.90;;;;;;5061853;28;20044;-65
2022/08/12 05:51:24;;;;;;;10.57;8.65;;;17.30;99.90;;;;;;5082226;28;20056;-65
2022/08/12 05:53:51;;;;;;;;;;;17.40;99.90;;;;;;5064693;28;20063;-65
2022/08/12 05:56:24;;;;;;;13.65;8.45;;;17.40;99.90;;;;;;5073303;28;19931;-65
2022/08/12 05:58:50;;;;;;;11.55;8.40;;;17.50;99.90;;;;;;5057392;28;20052;-65
2022/08/12 06:01:17;;;;;;;11.38;8.40;;;17.60;99.90;;;;;;5061985;28;20457;-65
2022/08/12 06:03:43;;;;;;;10.05;8.00;;;17.70;99.90;;;;;;5083838;28;20115;-65
2022/08/12 06:06:09;;;;;;;9.25;7.32;;;17.70;99.90;;;;;;5081764;28;20075;-65
2022/08/12 06:08:35;;;;;;;10.38;8.60;;;17.80;99.90;;;;;;5057811;28;20102;-65
2022/08/12 06:11:03;;;;;;;10.60;8.65;;;17.80;99.90;;;;;;5069788;28;20127;-65
2022/08/12 06:13:29;;;;;;;12.23;9.15;;;17.90;99.90;;;;;;5082850;28;20068;-65
2022/08/12 06:15:56;;;;;;;8.73;7.03;;;18.00;99.90;;;;;;5081311;28;20033;-65
2022/08/12 06:18:22;;;;;;;11.45;7.88;;;18.00;99.90;;;;;;5055509;28;20056;-65
2022/08/12 06:20:48;;;;;;;16.95;8.80;;;18.10;99.90;;;;;;5062436;28;20059;-65
2022/08/12 06:23:14;;;;;;;9.73;7.90;;;18.20;99.90;;;;;;5083553;28;20049;-65
2022/08/12 06:25:42;;;;;;;11.25;8.30;;;18.20;99.90;;;;;;5046527;28;20369;-65
2022/08/12 06:28:16;;;;;;;12.43;9.07;;;18.20;99.90;;;;;;5081986;28;20123;-65
2022/08/12 06:30:46;;;;;;;11.82;7.13;;;18.30;99.90;;;;;;5075628;28;20044;-65
2022/08/12 06:33:12;;;;;;;9.57;7.75;;;18.30;99.90;;;;;;5079739;28;20048;-65
2022/08/12 06:35:42;;;;;;;9.75;7.93;;;18.40;99.90;;;;;;5099000;28;20036;-65
2022/08/12 06:38:18;;;;;;;;;;;18.50;99.90;;;;;;5102269;28;20052;-65
2022/08/12 06:43:30;;;;;;;12.60;6.78;;;18.50;99.90;;;;;;5103063;28;20052;-65
2022/08/12 06:45:56;;;;;;;9.60;6.97;;;18.60;99.90;;;;;;5090779;28;20046;-65
2022/08/12 06:48:28;;;;;;;8.45;6.18;;;18.70;99.90;;;;;;5062057;28;20115;-65
2022/08/12 06:50:55;;;;;;;8.48;6.82;;;18.70;99.90;;;;;;5084883;28;20051;-65
2022/08/12 06:53:22;;;;;;;12.02;6.38;;;18.80;99.90;;;;;;5102113;28;20048;-65
2022/08/12 06:55:48;;;;;;;8.50;6.50;;;18.90;99.90;;;;;;5103123;28;20039;-65
2022/08/12 06:58:15;;;;;;;10.20;6.32;;;19.00;99.90;;;;;;5087410;28;20103;-65
2022/08/12 07:00:45;;;;;;;8.90;5.72;;;19.10;99.90;;;;;;5084897;28;20044;-65
2022/08/12 07:03:16;;;;;;;13.20;6.38;;;19.10;99.90;;;;;;5086133;28;20071;-65
2022/08/12 07:05:42;;;;;;;7.55;6.00;;;19.20;99.90;;;;;;5076643;28;20074;-65
2022/08/12 07:08:09;;;;;;;9.95;6.20;;;19.40;99.90;;;;;;5100582;28;20553;-65
2022/08/12 07:10:46;;;;;;;8.32;5.90;;;19.40;99.90;;;;;;5087454;28;20044;-65
2022/08/12 07:13:11;;;;;;;9.82;6.47;;;19.50;99.90;;;;;;5097679;28;20044;-65
2022/08/12 07:15:39;;;;;;;12.77;6.43;;;19.60;99.90;;;;;;5084599;28;20059;-65
2022/08/12 07:18:17;;;;;;;8.35;6.40;;;19.60;99.90;;;;;;5086555;28;20059;-65
2022/08/12 07:20:46;;;;;;;7.90;5.55;;;19.80;99.90;;;;;;5075102;28;20060;-65
2022/08/12 07:23:14;;;;;;;8.98;6.47;;;19.80;99.90;;;;;;5077925;28;20066;-65
2022/08/12 07:25:41;;;;;;;10.05;5.88;;;19.90;99.90;;;;;;5079516;28;20052;-65
2022/08/12 07:28:22;;;;;;;13.05;5.85;;;20.00;99.90;;;;;;5085199;28;20062;-65
2022/08/12 07:30:49;;;;;;;10.48;5.50;;;20.10;99.90;;;;;;5086406;28;20064;-65
2022/08/12 07:33:17;;;;;;;10.27;5.78;;;20.20;99.90;;;;;;5087669;28;20047;-65
2022/08/12 07:35:46;;;;;;;9.82;5.53;;;20.30;99.90;;;;;;5085539;28;20036;-65
2022/08/12 07:38:38;;;;;;;9.20;5.72;;;20.40;99.90;;;;;;5082815;28;20054;-65
2022/08/12 07:41:21;;;;;;;10.85;6.13;;;20.40;99.90;;;;;;5082471;28;20044;-65
2022/08/12 07:43:50;;;;;;;10.10;5.18;;;20.50;99.90;;;;;;5073969;28;20054;-65
2022/08/12 07:46:19;;;;;;;7.63;5.70;;;20.60;99.90;;;;;;5079895;28;20528;-65
2022/08/12 07:48:48;;;;;;;11.60;5.55;;;20.70;99.90;;;;;;5098105;28;20437;-65
2022/08/12 07:51:14;;;;;;;7.90;4.60;;;20.80;99.90;;;;;;5087444;28;20055;-65
2022/08/12 07:53:40;;;;;;;9.48;5.60;;;20.90;99.90;;;;;;5085622;28;20060;-65
2022/08/12 07:56:08;;;;;;;8.20;4.78;;;21.00;99.90;;;;;;5102406;28;20031;-65
2022/08/12 07:58:38;;;;;;;9.57;5.35;;;21.00;99.90;;;;;;5095189;28;20092;-65
2022/08/12 08:01:14;;;;;;;7.88;5.10;;;21.10;99.90;;;;;;5101460;28;20047;-65
2022/08/12 08:06:30;;;;;;;5.53;4.72;;;21.30;99.90;;;;;;5083573;28;20059;-65
2022/08/12 08:09:01;;;;;;;7.70;5.40;;;21.40;99.90;;;;;;5079264;28;20055;-65
2022/08/12 08:14:11;;;;;;;9.10;5.43;;;21.60;99.90;;;;;;5083328;28;20059;-65
2022/08/12 08:16:39;;;;;;;6.78;4.47;;;21.70;99.90;;;;;;5083403;28;20044;-65
2022/08/12 08:19:18;;;;;;;8.18;4.30;;;21.80;99.90;;;;;;5099717;28;20041;-65
2022/08/12 08:21:44;;;;;;;10.67;5.77;;;21.80;99.90;;;;;;5084528;28;20045;-65
2022/08/12 08:24:13;;;;;;;7.30;4.20;;;21.90;99.90;;;;;;5101341;28;20052;-65
2022/08/12 08:26:39;;;;;;;10.93;4.90;;;22.00;99.90;;;;;;5081806;28;20069;-65
2022/08/12 08:29:07;;;;;;;6.35;4.60;;;22.10;99.90;;;;;;5100932;28;20442;-65
2022/08/12 08:31:34;;;;;;;8.85;4.70;;;22.10;99.90;;;;;;5085014;28;20060;-65
2022/08/12 08:34:01;;;;;;;8.07;4.53;;;22.30;99.90;;;;;;5082285;28;20048;-65
2022/08/12 08:36:27;;;;;;;6.32;5.00;;;22.30;99.90;;;;;;5063682;28;20048;-65
2022/08/12 08:38:53;;;;;;;7.20;4.70;;;22.40;99.90;;;;;;5061744;28;20084;-65
2022/08/12 08:44:03;;;;;;;11.15;4.72;;;22.60;99.90;;;;;;5085275;28;20516;-65
2022/08/12 08:46:31;;;;;;;5.70;4.90;;;22.70;99.90;;;;;;5060527;28;20048;-65
2022/08/12 08:49:00;;;;;;;8.88;4.43;;;22.90;99.90;;;;;;5061312;28;20056;-65
2022/08/12 08:51:26;;;;;;;6.53;4.00;;;23.00;99.90;;;;;;5074274;28;20044;-65
2022/08/12 08:53:54;;;;;;;5.50;4.03;;;23.10;99.90;;;;;;5052882;28;20053;-65
2022/08/12 08:56:21;;;;;;;9.05;4.30;;;23.10;99.90;;;;;;5043750;28;20070;-65
2022/08/12 08:58:47;;;;;;;7.00;3.85;;;23.20;99.90;;;;;;5081718;28;20044;-65
2022/08/12 09:01:20;;;;;;;6.18;4.05;;;23.30;99.90;;;;;;5083533;28;20119;-65
2022/08/12 09:03:46;;;;;;;5.80;3.90;;;23.40;99.90;;;;;;5052531;28;20053;-65
2022/08/12 09:06:13;;;;;;;8.57;3.85;;;23.40;99.90;;;;;;5079648;28;20127;-65
2022/08/12 09:08:41;;;;;;;8.45;4.22;;;23.50;99.90;;;;;;5065678;28;20051;-65
2022/08/12 09:13:51;;;;;;;4.72;3.30;;;23.70;99.90;;;;;;5075921;28;20055;-65
2022/08/12 09:16:17;;;;;;;5.70;3.63;;;23.70;99.90;;;;;;5062728;28;20477;-65
2022/08/12 09:18:43;;;;;;;7.95;3.70;;;23.80;99.90;;;;;;5084588;28;20092;-65
2022/08/12 09:21:09;;;;;;;6.18;3.78;;;24.00;99.90;;;;;;5082335;28;20102;-66
2022/08/12 09:23:38;;;;;;;5.75;3.47;;;24.10;99.90;;;;;;5052839;28;20128;-65
2022/08/12 09:26:04;;;;;;;9.43;4.10;;;24.20;99.90;;;;;;5054166;28;20072;-65
2022/08/12 09:28:31;;;;;;;6.28;3.90;;;24.30;99.90;;;;;;5079024;28;20305;-65
2022/08/12 09:30:58;;;;;;;10.77;3.88;;;24.40;99.90;;;;;;5076669;28;20071;-65
2022/08/12 09:33:29;;;;;;;5.88;3.78;;;24.50;99.90;;;;;;5083585;28;20103;-65
2022/08/12 09:35:56;;;;;;;6.85;3.80;;;24.60;99.90;;;;;;5082946;28;20052;-65
2022/08/12 09:38:22;;;;;;;7.45;3.75;;;24.60;99.90;;;;;;5084660;28;20055;-65
2022/08/12 09:40:48;;;;;;;8.75;4.00;;;24.80;99.90;;;;;;5104484;28;20032;-65
2022/08/12 09:46:02;;;;;;;5.35;3.90;;;24.90;99.90;;;;;;5082300;28;20051;-65
2022/08/12 09:48:29;;;;;;;8.43;3.80;;;24.90;99.90;;;;;;5084254;28;20107;-65
2022/08/12 09:50:54;;;;;;;7.63;3.85;;;25.00;99.90;;;;;;5079599;28;20086;-65
2022/08/12 09:53:23;;;;;;;5.88;3.90;;;25.10;99.90;;;;;;5084932;28;20048;-66
2022/08/12 09:55:54;;;;;;;8.18;3.38;;;25.20;99.90;;;;;;5097813;28;20048;-66
2022/08/12 09:58:28;;;;;;;6.82;3.53;;;25.40;99.90;;;;;;5073133;28;20052;-65
2022/08/12 10:01:00;;;;;;;8.05;3.40;;;25.40;99.90;;;;;;5098563;28;20066;-65
2022/08/12 10:03:30;;;;;;;6.75;3.55;;;25.60;99.90;;;;;;5077898;28;20048;-66
2022/08/12 10:05:58;;;;;;;6.85;3.75;;;25.70;99.10;;;;;;5075476;28;20040;-66
2022/08/12 10:08:31;;;;;;;6.38;3.50;;;25.80;98.60;;;;;;5080610;28;20060;-65
2022/08/12 10:13:48;;;;;;;8.05;3.50;;;25.90;98.00;;;;;;5079576;28;20240;-66
2022/08/12 10:16:23;;;;;;;5.20;3.40;;;26.00;98.00;;;;;;5085369;28;20044;-66
2022/08/12 10:18:54;;;;;;;6.47;3.50;;;26.10;97.00;;;;;;5086730;28;20103;-65
2022/08/12 10:21:30;;;;;;;7.00;3.20;;;26.20;96.40;;;;;;5084869;28;20076;-65
2022/08/12 10:23:56;;;;;;;6.07;3.70;;;26.30;96.70;;;;;;5088516;28;20083;-65
2022/08/12 10:31:54;;;;;;;6.10;3.17;;;26.50;96.10;;;;;;5102759;28;20562;-66
2022/08/12 10:34:24;;;;;;;8.45;3.55;;;26.60;95.20;;;;;;5072565;28;20057;-66
2022/08/12 10:36:57;;;;;;;5.90;3.15;;;26.70;95.20;;;;;;5081317;28;20127;-65
2022/08/12 10:39:31;;;;;;;4.30;2.72;;;26.80;95.70;;;;;;5087096;28;20052;-66
2022/08/12 10:44:45;;;;;;;8.85;3.80;;;26.90;94.10;;;;;;5087222;28;20048;-66
2022/08/12 10:47:11;;;;;;;6.32;3.22;;;27.00;94.30;;;;;;5085990;28;20390;-65
2022/08/12 10:49:37;;;;;;;4.43;3.20;;;27.20;94.40;;;;;;5078083;28;20387;-66
2022/08/12 10:52:06;;;;;;;5.70;3.22;;;27.30;94.20;;;;;;5085051;28;20044;-66
2022/08/12 10:54:32;;;;;;;7.63;3.22;;;27.40;94.40;;;;;;5084123;28;20036;-66
2022/08/12 10:56:59;;;;;;;8.15;3.33;;;27.40;94.00;;;;;;5085566;28;20109;-66
2022/08/12 10:59:28;;;;;;;6.88;3.30;;;27.50;93.40;;;;;;5106034;28;20119;-66
2022/08/12 11:01:55;;;;;;;7.22;3.15;;;27.70;93.30;;;;;;5082583;28;20071;-66
2022/08/12 11:04:22;;;;;;;5.32;3.15;;;27.70;92.80;;;;;;5087652;28;20043;-66
2022/08/12 11:06:49;;;;;;;4.15;2.90;;;27.80;92.40;;;;;;5106782;28;20561;-65
2022/08/12 11:09:31;;;;;;;5.82;2.60;;;27.80;91.90;;;;;;5087788;28;20039;-66
2022/08/12 11:12:08;;;;;;;7.07;3.30;;;27.80;91.90;;;;;;5102553;28;20105;-66
2022/08/12 11:14:37;;;;;;;6.45;3.50;;;27.70;91.20;;;;;;5078500;28;20044;-66
2022/08/12 11:17:08;;;;;;;6.15;3.03;;;27.80;90.70;;;;;;5100764;28;20199;-66
2022/08/12 11:19:36;;;;;;;5.28;2.85;;;27.90;90.50;;;;;;5098572;28;20049;-66
2022/08/12 11:22:03;;;;;;;4.88;2.90;;;27.90;90.40;;;;;;5082085;28;20070;-66
2022/08/12 11:24:29;;;;;;;4.63;2.90;;;28.00;90.60;;;;;;5073022;28;20057;-66
2022/08/12 11:26:55;;;;;;;4.95;3.15;;;28.10;90.20;;;;;;5080477;28;20051;-66
2022/08/12 11:29:25;;;;;;;6.22;3.20;;;28.10;89.70;;;;;;5105218;28;20044;-66
2022/08/12 11:31:51;;;;;;;6.15;2.92;;;28.10;90.30;;;;;;5102352;28;20052;-66
2022/08/12 11:34:18;;;;;;;3.97;3.33;;;28.10;90.40;;;;;;5073032;28;20053;-66
2022/08/12 11:36:56;;;;;;;5.68;3.58;;;28.10;90.50;;;;;;5079491;28;20055;-66
2022/08/12 11:39:23;;;;;;;4.65;3.20;;;28.20;90.20;;;;;;5089663;28;20058;-66
2022/08/12 11:41:49;;;;;;;6.25;3.38;;;28.20;90.50;;;;;;5085315;28;20040;-66
2022/08/12 11:44:15;;;;;;;7.22;3.10;;;28.40;89.20;;;;;;5099476;28;20036;-66
2022/08/12 11:46:41;;;;;;;6.53;3.10;;;28.50;88.10;;;;;;5101676;28;20047;-66
2022/08/12 11:49:08;;;;;;;8.68;3.85;;;28.50;87.50;;;;;;5075092;28;20576;-66
2022/08/12 11:51:35;;;;;;;10.15;4.18;;;28.60;87.20;;;;;;5086180;28;20036;-66
2022/08/12 11:54:00;;;;;;;7.25;3.30;;;28.70;86.90;;;;;;5075666;28;20083;-65
2022/08/12 11:56:27;;;;;;;5.70;3.22;;;28.70;87.00;;;;;;5080783;28;20288;-66
2022/08/12 11:58:53;;;;;;;4.65;3.28;;;28.80;87.40;;;;;;5106565;28;20054;-66
2022/08/12 12:01:19;;;;;;;5.20;3.47;;;28.90;88.10;;;;;;5092630;28;20048;-66
2022/08/12 12:03:44;;;;;;;6.68;3.10;;;29.10;87.20;;;;;;5079692;28;20044;-65
2022/08/12 12:06:11;;;;;;;8.90;3.20;;;29.10;87.60;;;;;;5096815;28;20056;-66
2022/08/12 12:08:36;;;;;;;6.35;2.92;;;29.10;86.20;;;;;;5102181;28;20102;-66
2022/08/12 12:11:02;;;;;;;3.85;2.97;;;29.10;84.80;;;;;;5094729;28;20082;-66
2022/08/12 12:13:28;;;;;;;9.88;3.60;;;29.10;86.30;;;;;;5086379;28;20055;-66
2022/08/12 12:15:53;;;;;;;8.60;3.50;;;29.20;85.10;;;;;;5093660;28;20373;-66
2022/08/12 12:18:25;;;;;;;6.85;3.33;;;29.20;86.20;;;;;;5104823;28;20119;-66
2022/08/12 12:20:53;;;;;;;6.47;2.95;;;29.20;86.20;;;;;;5080073;28;20397;-66
2022/08/12 12:23:19;;;;;;;6.07;2.90;;;29.20;84.80;;;;;;5096946;28;20082;-66
2022/08/12 12:25:45;;;;;;;5.95;3.40;;;29.30;84.40;;;;;;5082915;28;20048;-66
2022/08/12 12:28:11;;;;;;;5.03;3.17;;;29.30;85.40;;;;;;5099177;28;20408;-66
2022/08/12 12:30:38;;;;;;;6.57;3.20;;;29.40;83.50;;;;;;5087360;28;20194;-66
2022/08/12 12:33:05;;;;;;;7.60;3.38;;;29.50;82.50;;;;;;5082684;28;20065;-66
2022/08/12 12:35:32;;;;;;;7.38;3.42;;;29.50;83.50;;;;;;5077839;28;20056;-66
2022/08/12 12:38:03;;;;;;;4.65;3.70;;;29.50;84.90;;;;;;5098631;28;20044;-66
2022/08/12 12:40:30;;;;;;;6.97;3.30;;;29.50;84.80;;;;;;5104704;28;20119;-66
2022/08/12 12:42:57;;;;;;;5.28;3.50;;;29.60;85.00;;;;;;5083029;28;20052;-66
2022/08/12 12:45:24;;;;;;;5.88;3.40;;;29.70;83.90;;;;;;5086603;28;20044;-66
2022/08/12 12:47:57;;;;;;;6.25;3.70;;;29.90;83.50;;;;;;5084631;28;20191;-66
2022/08/12 12:50:24;;;;;;;6.68;3.15;;;29.90;82.70;;;;;;5085658;28;20048;-66
2022/08/12 12:52:51;;;;;;;5.70;3.83;;;29.80;83.00;;;;;;5084671;28;20519;-66
2022/08/12 12:55:17;;;;;;;4.55;2.80;;;29.90;84.50;;;;;;5083531;28;20036;-66
2022/08/12 12:57:44;;;;;;;5.20;3.22;;;30.00;83.20;;;;;;5084560;28;20040;-66
2022/08/12 13:00:13;;;;;;;4.35;3.08;;;30.20;83.20;;;;;;5087224;28;20108;-66
2022/08/12 13:02:55;;;;;;;6.10;3.65;;;30.30;81.90;;;;;;5084076;28;20055;-66
2022/08/12 13:05:24;;;;;;;6.63;3.55;;;30.40;80.50;;;;;;5077023;28;20063;-66
2022/08/12 13:07:54;;;;;;;5.55;3.10;;;30.50;80.90;;;;;;5075530;28;20052;-66
2022/08/12 13:10:22;;;;;;;4.22;3.15;;;30.50;79.50;;;;;;5105218;28;20089;-66
2022/08/12 13:12:48;;;;;;;8.20;3.30;;;30.50;79.40;;;;;;5105564;28;20047;-66
2022/08/12 13:15:15;;;;;;;4.35;3.20;;;30.50;79.10;;;;;;5103626;28;20040;-66
2022/08/12 13:17:49;;;;;;;3.97;3.33;;;30.50;79.20;;;;;;5101828;28;20071;-66
2022/08/12 13:20:20;;;;;;;8.98;3.22;;;30.50;80.50;;;;;;5077253;28;20052;-66
2022/08/12 13:22:46;;;;;;;8.82;3.53;;;30.60;80.10;;;;;;5104554;28;20036;-66
2022/08/12 13:25:14;;;;;;;5.38;3.33;;;30.90;81.50;;;;;;5084178;28;20051;-66
2022/08/12 13:27:46;;;;;;;5.22;3.10;;;31.30;78.40;;;;;;5093387;28;20050;-66
2022/08/12 13:30:20;;;;;;;7.53;3.58;;;31.40;80.30;;;;;;5079978;28;20079;-66
2022/08/12 13:32:57;;;;;;;7.70;3.20;;;31.60;80.70;;;;;;5081901;28;20062;-66
2022/08/12 13:35:32;;;;;;;7.47;3.60;;;31.70;80.00;;;;;;5080791;28;20051;-66
2022/08/12 13:37:59;;;;;;;6.90;3.47;;;31.80;78.90;;;;;;5083105;28;20048;-66
2022/08/12 13:40:32;;;;;;;5.63;3.42;;;32.00;77.40;;;;;;5100606;28;20059;-66
2022/08/12 13:43:00;;;;;;;7.45;3.50;;;32.20;78.30;;;;;;5085790;28;20048;-66
2022/08/12 13:45:31;;;;;;;6.85;3.55;;;32.40;77.70;;;;;;5078857;28;20050;-66
2022/08/12 13:47:58;;;;;;;9.07;3.97;;;32.70;79.60;;;;;;5077186;28;20045;-66
2022/08/12 13:50:35;;;;;;;5.50;3.28;;;33.20;77.10;;;;;;5103264;28;20052;-66
2022/08/12 13:53:08;;;;;;;3.97;3.00;;;33.80;75.60;;;;;;5080337;28;20188;-66
2022/08/12 13:55:39;;;;;;;7.57;3.28;;;34.80;75.60;;;;;;5071030;28;20131;-66
2022/08/12 13:58:05;;;;;;;3.97;3.13;;;35.70;75.50;;;;;;5093764;28;20051;-66
2022/08/12 14:00:37;;;;;;;5.07;3.33;;;36.40;73.30;;;;;;5102532;28;20047;-66
2022/08/12 14:03:03;;;;;;;4.60;3.25;;;37.10;69.90;;;;;;5086707;28;20118;-66
2022/08/12 14:05:29;;;;;;;5.43;3.20;;;37.60;70.00;;;;;;5081625;28;20056;-66
2022/08/12 14:07:58;;;;;;;8.10;3.25;;;38.00;68.80;;;;;;5080135;28;20078;-67
2022/08/12 14:10:35;;;;;;;5.35;2.70;;;38.40;67.60;;;;;;5099073;28;20036;-66
2022/08/12 14:13:16;;;;;;;5.20;3.03;;;38.80;64.80;;;;;;5103361;28;20040;-65
2022/08/12 14:15:51;;;;;;;6.13;3.33;;;39.10;65.50;;;;;;5085072;28;20048;-65
2022/08/12 14:18:22;;;;;;;4.35;2.67;;;39.30;61.60;;;;;;5085894;28;20048;-65
2022/08/12 14:20:50;;;;;;;4.90;3.10;;;39.70;62.40;;;;;;5099648;28;20048;-65
2022/08/12 14:23:17;;;;;;;6.78;2.97;;;40.20;61.40;;;;;;5100757;28;20048;-65
2022/08/12 14:25:43;;;;;;;6.57;2.80;;;40.40;60.90;;;;;;5075532;28;20116;-64
2022/08/12 14:28:15;;;;;;;7.70;2.90;;;40.50;60.40;;;;;;5080302;28;20059;-65
2022/08/12 14:31:01;;;;;;;4.43;2.95;;;40.90;58.60;;;;;;5085671;28;20091;-65
2022/08/12 14:33:34;;;;;;;3.70;2.80;;;41.10;58.20;;;;;;5076349;28;20068;-65
2022/08/12 14:36:01;;;;;;;4.13;2.97;;;41.30;58.30;;;;;;5080708;28;20040;-65
2022/08/12 14:38:38;;;;;;;7.57;3.63;;;41.30;57.00;;;;;;5073409;28;20032;-65
2022/08/12 14:41:08;;;;;;;5.53;3.45;;;41.50;57.10;;;;;;5061443;28;20099;-65
2022/08/12 14:43:37;;;;;;;4.40;2.75;;;41.80;57.20;;;;;;5057119;28;20063;-65
2022/08/12 14:46:05;;;;;;;7.55;3.08;;;42.00;56.00;;;;;;5059905;28;20051;-65
2022/08/12 14:48:31;;;;;;;4.43;3.00;;;41.90;56.00;;;;;;5058129;28;20060;-65
2022/08/12 14:50:58;;;;;;;8.20;3.08;;;42.20;56.50;;;;;;5063077;28;20049;-65
2022/08/12 14:53:24;;;;;;;7.07;3.35;;;42.20;55.60;;;;;;5060951;28;20112;-65